createdAt,value
2023-05-09T00:00:40.934Z,58.70
2023-05-09T00:03:07.813Z,58.70
2023-05-09T00:05:36.994Z,58.80
2023-05-09T00:08:06.736Z,58.80
2023-05-09T00:10:36.653Z,58.80
2023-05-09T00:13:03.997Z,59.40
2023-05-09T00:15:34.021Z,58.80
2023-05-09T00:18:03.479Z,58.70
2023-05-09T00:20:35.580Z,58.80
2023-05-09T00:23:02.470Z,58.70
2023-05-09T00:25:32.028Z,58.70
2023-05-09T00:27:59.087Z,58.80
2023-05-09T00:30:25.973Z,58.80
2023-05-09T00:32:52.831Z,58.80
2023-05-09T00:35:19.832Z,58.90
2023-05-09T00:37:51.267Z,58.90
2023-05-09T00:40:20.378Z,59.00
2023-05-09T00:42:47.274Z,59.20
2023-05-09T00:45:16.634Z,58.90
2023-05-09T00:47:43.598Z,58.90
2023-05-09T00:50:13.617Z,59.00
2023-05-09T00:52:41.553Z,59.00
2023-05-09T00:55:09.319Z,59.10
2023-05-09T00:57:36.616Z,59.10
2023-05-09T01:00:04.618Z,59.10
2023-05-09T01:02:32.320Z,59.10
2023-05-09T01:04:59.473Z,59.20
2023-05-09T01:07:37.407Z,59.20
2023-05-09T01:10:24.112Z,59.20
2023-05-09T01:13:32.741Z,59.30
2023-05-09T01:16:09.355Z,59.30
2023-05-09T01:19:02.521Z,59.10
2023-05-09T01:21:32.339Z,59.30
2023-05-09T01:24:45.436Z,59.80
2023-05-09T01:27:33.392Z,59.20
2023-05-09T01:30:06.992Z,59.10
2023-05-09T01:32:40.607Z,59.10
2023-05-09T01:35:12.574Z,59.20
2023-05-09T01:37:44.925Z,59.20
2023-05-09T01:40:20.719Z,59.20
2023-05-09T01:42:59.642Z,59.20
2023-05-09T01:45:31.552Z,59.20
2023-05-09T01:48:01.656Z,59.10
2023-05-09T01:50:32.968Z,59.10
2023-05-09T01:53:01.622Z,59.10
2023-05-09T01:55:36.954Z,59.20
2023-05-09T01:58:10.613Z,59.20
2023-05-09T02:00:38.176Z,59.20
2023-05-09T02:03:06.175Z,59.20
2023-05-09T02:05:34.901Z,59.20
2023-05-09T02:08:01.772Z,59.20
2023-05-09T02:10:29.315Z,59.20
2023-05-09T02:12:57.394Z,59.20
2023-05-09T02:15:27.623Z,59.20
2023-05-09T02:17:54.495Z,59.20
2023-05-09T02:20:21.569Z,59.20
2023-05-09T02:22:48.835Z,59.30
2023-05-09T02:25:18.580Z,59.30
2023-05-09T02:27:49.304Z,59.30
2023-05-09T02:30:23.412Z,59.30
2023-05-09T02:32:57.093Z,59.30
2023-05-09T02:35:27.398Z,59.30
2023-05-09T02:37:55.452Z,59.30
2023-05-09T02:40:27.510Z,59.30
2023-05-09T02:42:54.459Z,59.30
2023-05-09T02:45:23.506Z,59.40
2023-05-09T02:47:52.510Z,59.30
2023-05-09T02:50:21.898Z,59.40
2023-05-09T02:52:48.820Z,59.40
2023-05-09T02:55:16.040Z,59.40
2023-05-09T02:57:43.919Z,59.40
2023-05-09T03:00:12.097Z,59.40
2023-05-09T03:02:39.441Z,59.40
2023-05-09T03:05:06.884Z,59.40
2023-05-09T03:07:36.172Z,59.40
2023-05-09T03:10:03.176Z,59.50
2023-05-09T03:12:30.105Z,59.40
2023-05-09T03:14:56.987Z,59.40
2023-05-09T03:17:26.065Z,59.40
2023-05-09T03:19:55.573Z,59.40
2023-05-09T03:22:27.468Z,59.40
2023-05-09T03:24:56.597Z,59.40
2023-05-09T03:27:23.574Z,59.40
2023-05-09T03:29:55.262Z,59.40
2023-05-09T03:32:22.278Z,59.40
2023-05-09T03:34:51.450Z,59.40
2023-05-09T03:37:18.447Z,59.50
2023-05-09T03:39:45.551Z,59.50
2023-05-09T03:42:12.464Z,59.50
2023-05-09T03:44:39.342Z,59.50
2023-05-09T03:47:08.731Z,59.50
2023-05-09T03:49:38.507Z,59.50
2023-05-09T03:52:10.935Z,59.50
2023-05-09T03:54:37.790Z,59.50
2023-05-09T03:57:07.921Z,59.50
2023-05-09T03:59:34.867Z,59.50
2023-05-09T04:02:04.007Z,59.50
2023-05-09T04:04:33.256Z,59.50
2023-05-09T04:07:00.165Z,59.50
2023-05-09T04:09:28.233Z,59.50
2023-05-09T04:11:55.099Z,59.60
2023-05-09T04:14:24.557Z,59.60
2023-05-09T04:16:51.388Z,59.60
2023-05-09T04:19:18.328Z,59.60
2023-05-09T04:21:45.267Z,59.60
2023-05-09T04:24:14.176Z,59.60
2023-05-09T04:26:43.895Z,59.70
2023-05-09T04:29:13.153Z,59.70
2023-05-09T04:31:44.904Z,59.70
2023-05-09T04:34:11.884Z,59.70
2023-05-09T04:36:41.507Z,59.80
2023-05-09T04:39:10.954Z,59.80
2023-05-09T04:41:37.742Z,59.90
2023-05-09T04:44:07.153Z,59.90
2023-05-09T04:46:36.471Z,60.00
2023-05-09T04:49:05.601Z,60.00
2023-05-09T04:51:32.748Z,60.00
2023-05-09T04:53:59.736Z,59.90
2023-05-09T04:56:26.670Z,59.90
2023-05-09T04:58:58.126Z,59.90
2023-05-09T05:01:25.015Z,59.90
2023-05-09T05:03:51.920Z,60.10
2023-05-09T05:06:18.795Z,59.90
2023-05-09T05:08:45.759Z,60.70
2023-05-09T05:11:15.199Z,59.90
2023-05-09T05:13:42.134Z,59.90
2023-05-09T05:16:13.691Z,59.80
2023-05-09T05:18:42.773Z,59.80
2023-05-09T05:21:09.900Z,59.90
2023-05-09T05:23:39.296Z,59.90
2023-05-09T05:26:06.140Z,59.90
2023-05-09T05:28:36.149Z,59.80
2023-05-09T05:31:03.065Z,59.80
2023-05-09T05:33:32.378Z,59.80
2023-05-09T05:36:03.910Z,59.80
2023-05-09T05:38:32.936Z,59.80
2023-05-09T05:41:02.058Z,59.70
2023-05-09T05:43:28.923Z,59.70
2023-05-09T05:45:55.824Z,59.70
2023-05-09T05:48:22.956Z,59.70
2023-05-09T05:50:49.752Z,59.80
2023-05-09T05:53:21.398Z,59.80
2023-05-09T05:55:49.161Z,59.90
2023-05-09T05:58:18.190Z,59.80
2023-05-09T06:00:47.151Z,59.90
2023-05-09T06:03:17.550Z,60.70
2023-05-09T06:05:44.663Z,59.90
2023-05-09T06:08:11.538Z,60.00
2023-05-09T06:10:41.730Z,60.00
2023-05-09T06:13:08.644Z,60.00
2023-05-09T06:15:35.706Z,60.00
2023-05-09T06:18:05.688Z,60.20
2023-05-09T06:20:35.991Z,60.30
2023-05-09T06:23:07.992Z,60.10
2023-05-09T06:25:37.363Z,60.10
2023-05-09T06:28:07.275Z,60.00
2023-05-09T06:30:34.192Z,60.00
2023-05-09T06:33:01.140Z,59.80
2023-05-09T06:35:28.110Z,59.70
2023-05-09T06:37:55.019Z,59.70
2023-05-09T06:40:22.004Z,59.50
2023-05-09T06:42:51.084Z,59.40
2023-05-09T06:45:18.335Z,59.20
2023-05-09T06:47:45.537Z,59.30
2023-05-09T06:50:15.106Z,59.30
2023-05-09T06:52:41.991Z,59.20
2023-05-09T06:55:09.950Z,59.40
2023-05-09T06:57:40.696Z,59.60
2023-05-09T07:00:09.294Z,59.50
2023-05-09T07:02:36.324Z,59.40
2023-05-09T07:05:03.424Z,59.20
2023-05-09T07:07:32.388Z,59.20
2023-05-09T07:10:10.616Z,59.40
2023-05-09T07:12:39.271Z,59.60
2023-05-09T07:15:09.522Z,59.40
2023-05-09T07:17:36.441Z,59.20
2023-05-09T07:20:06.129Z,59.20
2023-05-09T07:22:37.186Z,59.10
2023-05-09T07:25:09.410Z,59.00
2023-05-09T07:27:37.063Z,58.60
2023-05-09T07:30:05.781Z,58.20
2023-05-09T07:32:33.202Z,57.90
2023-05-09T07:35:00.181Z,58.60
2023-05-09T07:37:29.553Z,58.00
2023-05-09T07:39:56.430Z,57.80
2023-05-09T07:42:23.245Z,57.80
2023-05-09T07:44:52.787Z,57.70
2023-05-09T07:47:19.629Z,57.70
2023-05-09T07:49:47.966Z,57.80
2023-05-09T07:52:17.736Z,57.70
2023-05-09T07:54:47.896Z,57.70
2023-05-09T07:57:14.841Z,57.70
2023-05-09T07:59:44.278Z,57.70
2023-05-09T08:02:15.870Z,57.60
2023-05-09T08:04:49.060Z,57.30
2023-05-09T08:07:16.576Z,57.10
2023-05-09T08:09:43.525Z,56.90
2023-05-09T08:12:10.409Z,56.60
2023-05-09T08:14:37.274Z,56.40
2023-05-09T08:17:08.892Z,56.20
2023-05-09T08:19:35.731Z,56.10
2023-05-09T08:22:03.036Z,56.20
2023-05-09T08:24:32.694Z,56.30
2023-05-09T08:26:59.924Z,56.40
2023-05-09T08:29:29.830Z,56.30
2023-05-09T08:31:58.816Z,56.20
2023-05-09T08:34:28.312Z,56.10
2023-05-09T08:36:55.412Z,56.00
2023-05-09T08:39:22.393Z,55.90
2023-05-09T08:41:58.074Z,56.00
2023-05-09T08:44:32.134Z,57.00
2023-05-09T08:47:01.740Z,56.40
2023-05-09T08:49:29.697Z,56.60
2023-05-09T08:52:00.207Z,56.80
2023-05-09T08:54:28.163Z,56.70
2023-05-09T08:56:55.391Z,56.60
2023-05-09T08:59:24.913Z,56.20
2023-05-09T09:01:53.755Z,56.00
2023-05-09T09:04:22.286Z,55.70
2023-05-09T09:06:52.077Z,55.60
2023-05-09T09:09:22.515Z,55.20
2023-05-09T09:11:53.248Z,55.00
2023-05-09T09:14:27.640Z,55.00
2023-05-09T09:16:57.585Z,55.10
2023-05-09T09:19:33.813Z,55.00
2023-05-09T09:22:06.465Z,55.40
2023-05-09T09:24:34.736Z,55.30
2023-05-09T09:27:08.440Z,55.80
2023-05-09T09:29:40.102Z,54.80
2023-05-09T09:32:09.223Z,54.60
2023-05-09T09:34:36.076Z,54.40
2023-05-09T09:37:03.168Z,54.40
2023-05-09T09:39:32.276Z,54.20
2023-05-09T09:42:11.679Z,54.30
2023-05-09T09:44:38.678Z,53.80
2023-05-09T09:47:11.435Z,53.90
2023-05-09T09:49:47.376Z,53.70
2023-05-09T09:52:28.396Z,53.60
2023-05-09T09:54:56.852Z,53.30
2023-05-09T09:57:38.414Z,53.40
2023-05-09T10:00:10.094Z,53.40
2023-05-09T10:02:53.714Z,53.10
2023-05-09T10:05:26.670Z,52.50
2023-05-09T10:08:03.963Z,52.70
2023-05-09T10:10:35.734Z,52.20
2023-05-09T10:13:11.907Z,52.20
2023-05-09T10:15:52.916Z,51.70
2023-05-09T10:18:27.476Z,51.50
2023-05-09T10:21:01.066Z,51.10
2023-05-09T10:23:34.804Z,51.20
2023-05-09T10:26:19.811Z,51.50
2023-05-09T10:28:50.781Z,51.40
2023-05-09T10:31:32.744Z,51.30
2023-05-09T10:34:05.937Z,51.10
2023-05-09T10:36:40.405Z,51.40
2023-05-09T10:39:10.526Z,51.10
2023-05-09T10:41:38.921Z,50.90
2023-05-09T10:44:06.384Z,50.80
2023-05-09T10:46:33.812Z,50.60
2023-05-09T10:49:01.650Z,50.20
2023-05-09T10:51:29.103Z,50.30
2023-05-09T10:54:01.233Z,50.10
2023-05-09T10:56:32.974Z,50.10
2023-05-09T10:59:00.772Z,49.90
2023-05-09T11:01:38.994Z,49.80
2023-05-09T11:04:11.359Z,49.00
2023-05-09T11:06:49.477Z,49.00
2023-05-09T11:09:35.852Z,48.90
2023-05-09T11:12:07.487Z,49.10
2023-05-09T11:14:45.398Z,49.30
2023-05-09T11:17:22.637Z,49.40
2023-05-09T11:19:49.664Z,49.50
2023-05-09T11:22:22.382Z,49.50
2023-05-09T11:25:06.156Z,49.00
2023-05-09T11:27:52.134Z,48.70
2023-05-09T11:30:23.046Z,48.80
2023-05-09T11:32:58.980Z,48.80
2023-05-09T11:35:27.300Z,48.70
2023-05-09T11:38:05.600Z,48.90
2023-05-09T11:40:34.993Z,49.20
2023-05-09T11:43:02.379Z,49.40
2023-05-09T11:45:31.945Z,49.40
2023-05-09T11:48:01.207Z,49.20
2023-05-09T11:50:29.432Z,49.00
2023-05-09T11:52:58.540Z,48.90
2023-05-09T11:55:25.830Z,48.80
2023-05-09T11:57:54.520Z,48.70
2023-05-09T12:00:24.408Z,48.80
2023-05-09T12:02:54.605Z,49.00
2023-05-09T12:05:28.002Z,49.80
2023-05-09T12:07:58.008Z,49.00
2023-05-09T12:10:27.378Z,49.20
2023-05-09T12:12:56.064Z,49.10
2023-05-09T12:15:25.426Z,49.00
2023-05-09T12:18:06.554Z,48.90
2023-05-09T12:20:51.209Z,48.60
2023-05-09T12:23:19.478Z,48.40
2023-05-09T12:25:56.969Z,48.40
2023-05-09T12:28:27.343Z,48.30
2023-05-09T12:30:57.403Z,48.50
2023-05-09T12:33:25.041Z,48.60
2023-05-09T12:36:12.797Z,48.50
2023-05-09T12:38:39.998Z,48.20
2023-05-09T12:41:33.356Z,48.50
2023-05-09T12:44:00.147Z,48.50
2023-05-09T12:46:32.614Z,48.60
2023-05-09T12:48:59.567Z,48.40
2023-05-09T12:51:26.535Z,48.30
2023-05-09T12:53:54.016Z,47.90
2023-05-09T12:56:25.167Z,47.70
2023-05-09T12:58:55.811Z,47.60
2023-05-09T13:01:33.858Z,47.60
2023-05-09T13:04:05.871Z,47.40
2023-05-09T13:06:36.361Z,47.50
2023-05-09T13:09:09.912Z,47.80
2023-05-09T13:11:37.856Z,47.90
2023-05-09T13:14:04.828Z,48.10
2023-05-09T13:16:31.836Z,47.80
2023-05-09T13:18:58.775Z,47.60
2023-05-09T13:21:30.391Z,47.60
2023-05-09T13:23:59.580Z,47.70
2023-05-09T13:26:29.476Z,47.90
2023-05-09T13:28:56.849Z,47.90
2023-05-09T13:31:24.111Z,47.90
2023-05-09T13:33:52.126Z,47.90
2023-05-09T13:36:19.436Z,48.10
2023-05-09T13:38:46.728Z,48.10
2023-05-09T13:41:20.430Z,48.00
2023-05-09T13:43:47.573Z,47.80
2023-05-09T13:46:17.030Z,47.60
2023-05-09T13:48:47.732Z,47.40
2023-05-09T13:51:17.877Z,47.40
2023-05-09T13:53:47.060Z,47.40
2023-05-09T13:56:19.643Z,47.40
2023-05-09T13:58:53.769Z,47.20
2023-05-09T14:01:22.850Z,47.30
2023-05-09T14:03:49.736Z,47.40
2023-05-09T14:06:16.599Z,47.20
2023-05-09T14:08:46.602Z,47.30
2023-05-09T14:11:17.790Z,47.40
2023-05-09T14:13:44.753Z,47.40
2023-05-09T14:16:11.776Z,47.40
2023-05-09T14:18:41.031Z,47.30
2023-05-09T14:21:12.957Z,47.50
2023-05-09T14:23:39.803Z,47.30
2023-05-09T14:26:08.982Z,47.30
2023-05-09T14:28:38.166Z,47.10
2023-05-09T14:31:05.211Z,46.90
2023-05-09T14:33:33.029Z,47.00
2023-05-09T14:36:02.746Z,47.80
2023-05-09T14:38:29.812Z,47.10
2023-05-09T14:40:56.710Z,46.90
2023-05-09T14:43:26.657Z,46.70
2023-05-09T14:45:56.093Z,46.80
2023-05-09T14:48:26.091Z,46.90
2023-05-09T14:50:57.704Z,47.20
2023-05-09T14:53:25.086Z,47.20
2023-05-09T14:55:52.046Z,47.20
2023-05-09T14:58:19.192Z,47.30
2023-05-09T15:00:46.774Z,47.40
2023-05-09T15:03:16.078Z,47.30
2023-05-09T15:05:47.596Z,47.20
2023-05-09T15:08:17.040Z,47.00
2023-05-09T15:10:47.035Z,47.00
2023-05-09T15:13:14.068Z,47.10
2023-05-09T15:15:41.103Z,47.20
2023-05-09T15:18:10.333Z,47.20
2023-05-09T15:20:37.496Z,47.30
2023-05-09T15:23:07.841Z,47.30
2023-05-09T15:25:37.436Z,47.30
2023-05-09T15:28:07.358Z,47.40
2023-05-09T15:30:38.784Z,47.30
2023-05-09T15:33:06.302Z,47.30
2023-05-09T15:35:33.551Z,48.10
2023-05-09T15:38:00.465Z,47.30
2023-05-09T15:40:29.923Z,47.20
2023-05-09T15:42:59.997Z,47.20
2023-05-09T15:45:26.853Z,47.30
2023-05-09T15:47:56.255Z,47.30
2023-05-09T15:50:27.765Z,47.30
2023-05-09T15:52:54.736Z,47.40
2023-05-09T15:55:21.825Z,47.20
2023-05-09T15:57:48.773Z,47.30
2023-05-09T16:00:19.032Z,47.40
2023-05-09T16:02:50.855Z,47.40
2023-05-09T16:05:18.156Z,47.60
2023-05-09T16:07:47.131Z,47.70
2023-05-09T16:10:14.815Z,47.30
2023-05-09T16:12:44.655Z,47.20
2023-05-09T16:15:12.366Z,47.50
2023-05-09T16:17:41.986Z,47.80
2023-05-09T16:20:13.464Z,47.90
2023-05-09T16:22:45.299Z,48.00
2023-05-09T16:25:12.244Z,47.80
2023-05-09T16:27:43.680Z,47.90
2023-05-09T16:30:14.004Z,48.00
2023-05-09T16:32:43.420Z,48.00
2023-05-09T16:35:15.142Z,48.20
2023-05-09T16:37:42.042Z,48.20
2023-05-09T16:40:09.827Z,48.10
2023-05-09T16:42:41.470Z,48.30
2023-05-09T16:45:12.215Z,48.40
2023-05-09T16:47:39.278Z,48.40
2023-05-09T16:50:11.084Z,48.50
2023-05-09T16:52:40.978Z,48.70
2023-05-09T16:55:08.494Z,49.00
2023-05-09T16:57:38.330Z,49.10
2023-05-09T17:00:07.853Z,49.30
2023-05-09T17:02:36.291Z,49.50
2023-05-09T17:05:04.324Z,49.70
2023-05-09T17:07:32.256Z,49.90
2023-05-09T17:09:59.299Z,50.00
2023-05-09T17:12:27.527Z,50.20
2023-05-09T17:14:56.794Z,50.40
2023-05-09T17:17:26.172Z,50.70
2023-05-09T17:19:53.133Z,50.90
2023-05-09T17:22:23.311Z,51.00
2023-05-09T17:24:52.515Z,51.10
2023-05-09T17:27:19.566Z,51.30
2023-05-09T17:29:46.652Z,51.50
2023-05-09T17:32:13.784Z,51.60
2023-05-09T17:34:40.713Z,51.80
2023-05-09T17:37:10.139Z,51.90
2023-05-09T17:39:42.240Z,51.90
2023-05-09T17:42:14.043Z,52.10
2023-05-09T17:44:42.493Z,52.30
2023-05-09T17:47:12.609Z,52.40
2023-05-09T17:49:39.760Z,52.60
2023-05-09T17:52:10.087Z,52.70
2023-05-09T17:54:38.107Z,52.80
2023-05-09T17:57:07.867Z,53.00
2023-05-09T17:59:40.465Z,53.10
2023-05-09T18:02:08.868Z,53.20
2023-05-09T18:04:36.140Z,53.30
2023-05-09T18:07:03.093Z,53.40
2023-05-09T18:09:32.398Z,53.60
2023-05-09T18:12:01.525Z,53.80
2023-05-09T18:14:28.490Z,53.60
2023-05-09T18:16:55.541Z,53.70
2023-05-09T18:19:27.519Z,53.70
2023-05-09T18:21:56.882Z,53.90
2023-05-09T18:24:23.838Z,53.90
2023-05-09T18:26:55.522Z,54.00
2023-05-09T18:29:23.503Z,54.10
2023-05-09T18:31:53.314Z,54.10
2023-05-09T18:34:20.558Z,54.20
2023-05-09T18:36:52.593Z,54.20
2023-05-09T18:39:22.142Z,54.30
2023-05-09T18:41:49.126Z,54.30
2023-05-09T18:44:16.123Z,54.30
2023-05-09T18:46:47.842Z,54.40
2023-05-09T18:49:17.589Z,54.50
2023-05-09T18:51:44.526Z,54.50
2023-05-09T18:54:14.037Z,54.60
2023-05-09T18:56:43.116Z,54.70
2023-05-09T18:59:12.326Z,54.70
2023-05-09T19:01:42.716Z,54.80
2023-05-09T19:04:17.199Z,54.80
2023-05-09T19:06:44.982Z,54.90
2023-05-09T19:09:11.944Z,55.00
2023-05-09T19:11:41.329Z,54.90
2023-05-09T19:14:08.321Z,55.00
2023-05-09T19:16:37.556Z,55.00
2023-05-09T19:19:04.463Z,55.10
2023-05-09T19:21:31.420Z,55.20
2023-05-09T19:23:58.317Z,55.20
2023-05-09T19:26:27.423Z,55.30
2023-05-09T19:28:54.793Z,55.30
2023-05-09T19:31:25.488Z,55.30
2023-05-09T19:33:57.186Z,55.40
2023-05-09T19:36:26.645Z,55.50
2023-05-09T19:38:56.119Z,55.50
2023-05-09T19:41:22.986Z,55.50
2023-05-09T19:43:52.195Z,55.60
2023-05-09T19:46:22.837Z,55.60
2023-05-09T19:48:50.010Z,55.60
2023-05-09T19:51:16.920Z,55.60
2023-05-09T19:53:43.808Z,55.70
2023-05-09T19:56:11.616Z,55.70
2023-05-09T19:58:40.872Z,55.70
2023-05-09T20:01:07.777Z,55.80
2023-05-09T20:03:38.535Z,55.90
2023-05-09T20:06:05.872Z,56.00
2023-05-09T20:08:32.749Z,56.00
2023-05-09T20:11:00.208Z,56.00
2023-05-09T20:13:27.770Z,56.10
2023-05-09T20:16:00.278Z,56.10
2023-05-09T20:18:33.320Z,56.10
2023-05-09T20:21:04.039Z,56.10
2023-05-09T20:23:32.988Z,56.00
2023-05-09T20:25:59.943Z,56.00
2023-05-09T20:28:27.514Z,55.90
2023-05-09T20:30:56.482Z,56.00
2023-05-09T20:33:27.934Z,56.00
2023-05-09T20:35:54.733Z,56.00
2023-05-09T20:38:21.632Z,56.10
2023-05-09T20:40:48.801Z,55.90
2023-05-09T20:43:15.740Z,56.00
2023-05-09T20:45:43.039Z,56.00
2023-05-09T20:48:10.502Z,56.10
2023-05-09T20:50:39.586Z,56.10
2023-05-09T20:53:08.631Z,56.20
2023-05-09T20:55:37.857Z,56.20
2023-05-09T20:58:04.795Z,56.30
2023-05-09T21:00:36.246Z,56.30
2023-05-09T21:03:05.805Z,56.30
2023-05-09T21:05:35.336Z,56.30
2023-05-09T21:08:07.330Z,56.40
2023-05-09T21:10:34.135Z,56.40
2023-05-09T21:13:04.792Z,56.30
2023-05-09T21:15:33.928Z,56.40
2023-05-09T21:18:00.864Z,56.40
2023-05-09T21:20:30.865Z,56.40
2023-05-09T21:22:57.776Z,56.40
2023-05-09T21:25:24.736Z,56.40
2023-05-09T21:27:51.564Z,56.40
2023-05-09T21:30:18.682Z,56.40
2023-05-09T21:32:48.194Z,56.40
2023-05-09T21:35:17.525Z,56.40
2023-05-09T21:37:46.121Z,56.50
2023-05-09T21:40:13.808Z,56.50
2023-05-09T21:42:41.618Z,56.40
2023-05-09T21:45:13.220Z,56.50
2023-05-09T21:47:40.402Z,56.40
2023-05-09T21:50:07.924Z,56.50
2023-05-09T21:52:36.907Z,56.50
2023-05-09T21:55:04.048Z,56.40
2023-05-09T21:57:30.895Z,56.50
2023-05-09T22:00:01.236Z,56.50
2023-05-09T22:02:30.961Z,56.50
2023-05-09T22:04:57.916Z,56.50
2023-05-09T22:07:26.997Z,56.40
2023-05-09T22:09:54.185Z,56.50
2023-05-09T22:12:23.059Z,56.40
2023-05-09T22:14:56.284Z,56.40
2023-05-09T22:17:24.599Z,56.40
2023-05-09T22:19:52.025Z,56.40
2023-05-09T22:22:19.149Z,56.40
2023-05-09T22:24:46.112Z,56.50
2023-05-09T22:27:15.564Z,56.50
2023-05-09T22:29:42.513Z,56.50
2023-05-09T22:32:09.514Z,56.50
2023-05-09T22:34:38.876Z,56.50
2023-05-09T22:37:10.418Z,56.50
2023-05-09T22:39:39.974Z,56.50
2023-05-09T22:42:11.209Z,57.20
2023-05-09T22:44:38.971Z,56.50
2023-05-09T22:47:09.756Z,56.60
2023-05-09T22:49:36.619Z,56.60
2023-05-09T22:52:03.747Z,56.60
2023-05-09T22:54:30.541Z,56.60
2023-05-09T22:56:57.398Z,56.60
2023-05-09T22:59:24.385Z,56.60
2023-05-09T23:01:52.803Z,56.60
2023-05-09T23:04:24.273Z,56.60
2023-05-09T23:06:53.281Z,56.60
2023-05-09T23:09:22.770Z,56.80
2023-05-09T23:11:51.849Z,56.60
2023-05-09T23:14:21.395Z,56.60
2023-05-09T23:16:49.149Z,56.60
2023-05-09T23:19:20.818Z,56.60
2023-05-09T23:21:47.714Z,56.60
2023-05-09T23:24:16.679Z,56.60
2023-05-09T23:26:43.534Z,56.60
2023-05-09T23:29:13.443Z,57.30
2023-05-09T23:31:40.692Z,56.60
2023-05-09T23:34:07.550Z,56.70
2023-05-09T23:36:34.465Z,56.70
2023-05-09T23:39:01.418Z,56.60
2023-05-09T23:41:30.362Z,56.70
2023-05-09T23:43:58.239Z,56.70
2023-05-09T23:46:27.560Z,56.80
2023-05-09T23:48:54.407Z,56.80
2023-05-09T23:51:22.508Z,56.80
2023-05-09T23:53:49.594Z,56.80
2023-05-09T23:56:16.505Z,56.70
2023-05-09T23:58:43.423Z,56.70
